createdAt,value
2018-02-17T00:00:13.015Z,81.90
2018-02-17T00:02:41.639Z,99.30
2018-02-17T00:05:09.537Z,78.55
2018-02-17T00:07:37.465Z,77.45
2018-02-17T00:10:05.380Z,81.20
2018-02-17T00:12:33.365Z,102.38
2018-02-17T00:15:01.287Z,83.72
2018-02-17T00:17:29.236Z,97.18
2018-02-17T00:19:57.153Z,82.85
2018-02-17T00:22:25.047Z,93.15
2018-02-17T00:24:52.980Z,81.28
2018-02-17T00:27:20.883Z,77.97
2018-02-17T00:29:48.859Z,91.68
2018-02-17T00:32:16.851Z,90.20
2018-02-17T00:34:44.820Z,84.57
2018-02-17T00:37:13.590Z,91.68
2018-02-17T00:39:41.560Z,93.00
2018-02-17T00:42:09.528Z,97.07
2018-02-17T00:44:37.461Z,84.62
2018-02-17T00:47:05.397Z,89.18
2018-02-17T00:49:33.326Z,94.32
2018-02-17T00:52:01.304Z,94.87
2018-02-17T00:54:29.172Z,89.22
2018-02-17T00:56:57.071Z,88.82
2018-02-17T00:59:25.750Z,87.50
2018-02-17T01:01:54.472Z,91.50
2018-02-17T01:04:22.392Z,90.93
2018-02-17T01:06:50.354Z,85.32
2018-02-17T01:09:18.316Z,88.47
2018-02-17T01:11:46.217Z,88.15
2018-02-17T01:14:14.885Z,93.45
2018-02-17T01:16:42.878Z,83.22
2018-02-17T01:19:10.775Z,82.00
2018-02-17T01:21:38.674Z,91.93
2018-02-17T01:24:06.662Z,86.22
2018-02-17T01:26:34.575Z,83.90
2018-02-17T01:29:02.477Z,77.30
2018-02-17T01:31:30.439Z,83.68
2018-02-17T01:33:58.314Z,84.37
2018-02-17T01:36:26.240Z,88.80
2018-02-17T01:38:54.225Z,96.93
2018-02-17T01:41:22.100Z,76.35
2018-02-17T01:43:50.022Z,80.45
2018-02-17T01:46:18.850Z,84.95
2018-02-17T01:48:46.770Z,89.90
2018-02-17T01:51:15.536Z,81.97
2018-02-17T01:53:43.510Z,82.25
2018-02-17T01:56:11.468Z,84.00
2018-02-17T01:58:39.427Z,82.20
2018-02-17T02:01:07.418Z,86.00
2018-02-17T02:03:35.388Z,90.65
2018-02-17T02:06:03.366Z,94.55
2018-02-17T02:08:31.346Z,79.87
2018-02-17T02:11:00.076Z,89.97
2018-02-17T02:13:28.024Z,89.25
2018-02-17T02:15:55.925Z,83.20
2018-02-17T02:18:23.855Z,77.82
2018-02-17T02:20:51.819Z,83.05
2018-02-17T02:23:20.490Z,81.15
2018-02-17T02:25:48.411Z,86.55
2018-02-17T02:28:16.313Z,91.05
2018-02-17T02:30:44.206Z,92.88
2018-02-17T02:33:12.906Z,90.43
2018-02-17T02:35:40.860Z,86.05
2018-02-17T02:38:09.540Z,90.47
2018-02-17T02:40:38.257Z,93.35
2018-02-17T02:43:06.148Z,91.87
2018-02-17T02:45:34.047Z,87.37
2018-02-17T02:48:01.947Z,82.70
2018-02-17T02:50:29.837Z,69.82
2018-02-17T02:52:57.761Z,91.63
2018-02-17T02:55:25.683Z,84.65
2018-02-17T02:57:53.590Z,91.93
2018-02-17T03:00:21.572Z,83.43
2018-02-17T03:02:50.332Z,74.60
2018-02-17T03:05:18.287Z,84.47
2018-02-17T03:07:46.264Z,81.80
2018-02-17T03:10:14.243Z,93.12
2018-02-17T03:12:42.123Z,77.10
2018-02-17T03:15:10.833Z,91.40
2018-02-17T03:17:38.821Z,75.40
2018-02-17T03:20:06.791Z,81.15
2018-02-17T03:22:34.756Z,82.00
2018-02-17T03:25:02.640Z,78.75
2018-02-17T03:27:30.657Z,83.97
2018-02-17T03:29:59.376Z,80.55
2018-02-17T03:32:27.404Z,74.82
2018-02-17T03:34:55.321Z,73.62
2018-02-17T03:37:23.248Z,79.93
2018-02-17T03:39:51.918Z,77.72
2018-02-17T03:42:19.821Z,84.78
2018-02-17T03:44:47.721Z,86.87
2018-02-17T03:47:15.723Z,77.25
2018-02-17T03:49:43.627Z,83.55
2018-02-17T03:52:11.544Z,92.22
2018-02-17T03:54:39.456Z,79.12
2018-02-17T03:57:07.350Z,84.35
2018-02-17T03:59:35.244Z,92.93
2018-02-17T04:02:03.127Z,90.20
2018-02-17T04:04:30.991Z,85.90
2018-02-17T04:06:58.995Z,77.50
2018-02-17T04:09:26.902Z,81.12
2018-02-17T04:11:54.778Z,93.68
2018-02-17T04:14:22.735Z,79.65
2018-02-17T04:16:50.711Z,84.95
2018-02-17T04:19:18.676Z,89.20
2018-02-17T04:21:46.663Z,82.75
2018-02-17T04:24:14.599Z,93.87
2018-02-17T04:26:42.485Z,82.22
2018-02-17T04:29:10.404Z,95.82
2018-02-17T04:31:38.329Z,102.12
2018-02-17T04:34:06.200Z,79.62
2018-02-17T04:36:34.105Z,86.25
2018-02-17T04:39:02.144Z,76.93
2018-02-17T04:41:33.067Z,86.80
2018-02-17T04:47:13.034Z,85.95
2018-02-17T04:49:42.978Z,86.90
2018-02-17T04:52:16.263Z,86.78
2018-02-17T04:55:01.982Z,97.45
2018-02-17T04:57:29.940Z,105.35
2018-02-17T04:59:58.627Z,94.10
2018-02-17T05:02:42.152Z,88.82
2018-02-17T05:05:19.650Z,85.55
2018-02-17T05:07:53.132Z,105.78
2018-02-17T05:10:21.919Z,91.53
2018-02-17T05:12:50.730Z,86.30
2018-02-17T05:15:19.624Z,87.57
2018-02-17T05:17:53.290Z,92.72
2018-02-17T05:20:26.874Z,85.90
2018-02-17T05:23:11.547Z,83.93
2018-02-17T05:25:54.255Z,95.45
2018-02-17T05:28:22.290Z,105.30
2018-02-17T05:30:50.297Z,92.53
2018-02-17T05:33:19.094Z,107.12
2018-02-17T05:35:52.930Z,93.65
2018-02-17T05:38:20.970Z,128.15
2018-02-17T05:40:50.368Z,100.32
2018-02-17T05:43:18.392Z,102.15
2018-02-17T05:45:46.341Z,94.93
2018-02-17T05:48:15.225Z,116.72
2018-02-17T05:50:43.194Z,122.78
2018-02-17T05:53:11.090Z,90.43
2018-02-17T05:55:38.994Z,115.15
2018-02-17T05:58:07.000Z,97.93
2018-02-17T06:00:34.876Z,112.47
2018-02-17T06:03:02.844Z,120.78
2018-02-17T06:05:30.849Z,111.55
2018-02-17T06:07:58.910Z,112.65
2018-02-17T06:10:26.820Z,107.72
2018-02-17T06:12:55.471Z,104.80
2018-02-17T06:15:23.373Z,120.22
2018-02-17T06:17:52.112Z,128.00
2018-02-17T06:20:20.013Z,105.78
2018-02-17T06:22:47.884Z,114.60
2018-02-17T06:25:16.593Z,112.55
2018-02-17T06:27:44.520Z,119.97
2018-02-17T06:30:12.563Z,106.60
2018-02-17T06:32:40.536Z,124.35
2018-02-17T06:35:08.423Z,128.15
2018-02-17T06:37:36.299Z,122.00
2018-02-17T06:40:04.256Z,121.82
2018-02-17T06:42:32.147Z,129.15
2018-02-17T06:45:00.883Z,124.03
2018-02-17T06:47:28.790Z,120.75
2018-02-17T06:49:56.707Z,109.20
2018-02-17T06:52:24.611Z,119.22
2018-02-17T06:54:52.537Z,122.32
2018-02-17T06:57:20.412Z,112.85
2018-02-17T06:59:48.460Z,118.55
2018-02-17T07:02:16.398Z,123.00
2018-02-17T07:04:44.294Z,125.12
2018-02-17T07:07:12.194Z,123.32
2018-02-17T07:09:40.292Z,123.18
2018-02-17T07:12:08.234Z,127.22
2018-02-17T07:14:36.197Z,125.70
2018-02-17T07:17:04.153Z,113.43
2018-02-17T07:19:32.032Z,107.03
2018-02-17T07:22:00.079Z,98.15
2018-02-17T07:24:28.024Z,107.37
2018-02-17T07:26:56.701Z,116.12
2018-02-17T07:29:25.391Z,117.25
2018-02-17T07:31:54.051Z,121.93
2018-02-17T07:34:21.950Z,115.88
2018-02-17T07:36:50.632Z,107.10
2018-02-17T07:39:19.382Z,120.53
2018-02-17T07:41:47.310Z,104.05
2018-02-17T07:44:15.274Z,121.03
2018-02-17T07:46:43.246Z,113.72
2018-02-17T07:49:11.134Z,109.87
2018-02-17T07:51:39.055Z,120.28
2018-02-17T07:54:07.757Z,101.18
2018-02-17T07:56:35.717Z,98.50
2018-02-17T07:59:04.396Z,123.00
2018-02-17T08:01:33.125Z,123.82
2018-02-17T08:04:01.023Z,110.97
2018-02-17T08:06:28.991Z,114.25
2018-02-17T08:08:57.016Z,117.70
2018-02-17T08:11:24.936Z,103.07
2018-02-17T08:13:52.901Z,115.22
2018-02-17T08:16:20.813Z,114.32
2018-02-17T08:18:48.779Z,125.68
2018-02-17T08:21:17.413Z,121.82
2018-02-17T08:23:45.399Z,120.45
2018-02-17T08:26:14.233Z,123.47
2018-02-17T08:28:42.157Z,114.12
2018-02-17T08:31:10.152Z,123.40
2018-02-17T08:33:38.814Z,111.35
2018-02-17T08:36:06.722Z,122.07
2018-02-17T08:38:34.634Z,110.53
2018-02-17T08:41:02.616Z,127.55
2018-02-17T08:43:30.596Z,126.53
2018-02-17T08:45:59.281Z,121.22
2018-02-17T08:48:27.157Z,136.32
2018-02-17T08:50:56.096Z,133.45
2018-02-17T08:53:24.058Z,142.70
2018-02-17T08:55:53.658Z,158.98
2018-02-17T08:58:21.716Z,167.10
2018-02-17T09:00:49.602Z,142.90
2018-02-17T09:03:17.587Z,147.30
2018-02-17T09:05:45.649Z,157.25
2018-02-17T09:08:13.711Z,146.05
2018-02-17T09:10:47.466Z,155.10
2018-02-17T09:13:15.346Z,159.00
2018-02-17T09:15:43.994Z,150.85
2018-02-17T09:18:11.887Z,161.55
2018-02-17T09:20:39.880Z,152.85
2018-02-17T09:23:07.762Z,153.38
2018-02-17T09:25:35.682Z,140.98
2018-02-17T09:28:03.690Z,161.40
2018-02-17T09:30:31.710Z,152.15
2018-02-17T09:32:59.595Z,162.40
2018-02-17T09:35:27.482Z,151.48
2018-02-17T09:37:55.443Z,136.85
2018-02-17T09:40:24.115Z,133.85
2018-02-17T09:42:52.015Z,131.40
2018-02-17T09:45:19.942Z,143.98
2018-02-17T09:47:47.885Z,146.23
2018-02-17T09:50:15.867Z,146.68
2018-02-17T09:52:43.841Z,138.85
2018-02-17T09:55:11.727Z,143.48
2018-02-17T09:57:41.196Z,143.15
2018-02-17T10:00:09.169Z,139.32
2018-02-17T10:02:37.051Z,143.87
2018-02-17T10:05:04.987Z,140.93
2018-02-17T10:07:32.935Z,143.37
2018-02-17T10:10:01.369Z,145.57
2018-02-17T10:12:30.519Z,139.30
2018-02-17T10:14:58.396Z,148.13
2018-02-17T10:17:26.393Z,151.40
2018-02-17T10:19:54.371Z,142.95
2018-02-17T10:22:22.337Z,143.00
2018-02-17T10:24:50.335Z,144.93
2018-02-17T10:27:18.257Z,147.48
2018-02-17T10:29:46.152Z,149.82
2018-02-17T10:32:14.824Z,139.90
2018-02-17T10:34:43.244Z,148.02
2018-02-17T10:37:11.296Z,152.80
2018-02-17T10:39:40.008Z,155.70
2018-02-17T10:42:07.942Z,144.00
2018-02-17T10:44:36.677Z,152.55
2018-02-17T10:47:04.563Z,168.82
2018-02-17T10:49:32.544Z,167.40
2018-02-17T10:52:00.435Z,155.33
2018-02-17T10:54:28.435Z,167.90
2018-02-17T10:56:56.352Z,157.43
2018-02-17T10:59:24.347Z,161.10
2018-02-17T11:01:52.988Z,175.10
2018-02-17T11:04:21.685Z,167.40
2018-02-17T11:06:49.724Z,169.15
2018-02-17T11:09:17.667Z,167.82
2018-02-17T11:11:45.559Z,171.55
2018-02-17T11:14:13.506Z,161.83
2018-02-17T11:16:41.392Z,170.93
2018-02-17T11:19:09.327Z,190.40
2018-02-17T11:21:38.167Z,183.45
2018-02-17T11:24:06.163Z,183.25
2018-02-17T11:26:34.135Z,174.27
2018-02-17T11:29:02.108Z,163.93
2018-02-17T11:31:30.870Z,160.33
2018-02-17T11:33:58.930Z,162.25
2018-02-17T11:36:26.839Z,170.27
2018-02-17T11:38:54.793Z,181.10
2018-02-17T11:41:22.694Z,171.95
2018-02-17T11:43:50.596Z,177.00
2018-02-17T11:46:18.572Z,171.37
2018-02-17T11:48:46.547Z,163.12
2018-02-17T11:51:14.522Z,170.63
2018-02-17T11:53:42.486Z,167.93
2018-02-17T11:56:10.475Z,172.00
2018-02-17T11:58:38.445Z,167.27
2018-02-17T12:01:06.336Z,168.55
2018-02-17T12:03:34.411Z,167.53
2018-02-17T12:06:02.352Z,171.68
2018-02-17T12:08:30.266Z,173.85
2018-02-17T12:10:58.221Z,180.63
2018-02-17T12:13:26.198Z,180.60
2018-02-17T12:15:54.168Z,164.52
2018-02-17T12:18:22.129Z,168.87
2018-02-17T12:20:50.075Z,190.82
2018-02-17T12:23:18.785Z,178.87
2018-02-17T12:25:47.399Z,190.40
2018-02-17T12:28:15.349Z,174.62
2018-02-17T12:30:43.323Z,183.05
2018-02-17T12:33:11.215Z,198.80
2018-02-17T12:35:39.181Z,208.10
2018-02-17T12:38:07.071Z,194.75
2018-02-17T12:40:35.001Z,194.77
2018-02-17T12:43:02.987Z,203.90
2018-02-17T12:45:30.973Z,200.10
2018-02-17T12:47:58.892Z,200.62
2018-02-17T12:50:26.798Z,190.27
2018-02-17T12:52:54.698Z,154.45
2018-02-17T12:55:23.432Z,149.20
2018-02-17T12:57:51.411Z,156.23
2018-02-17T13:00:19.311Z,162.50
2018-02-17T13:02:47.425Z,177.77
2018-02-17T13:05:15.330Z,161.23
2018-02-17T13:07:43.333Z,161.90
2018-02-17T13:10:12.100Z,156.02
2018-02-17T13:12:40.174Z,143.20
2018-02-17T13:15:08.086Z,147.10
2018-02-17T13:17:36.411Z,147.77
2018-02-17T13:20:04.447Z,172.07
2018-02-17T13:22:32.344Z,185.00
2018-02-17T13:25:00.285Z,181.75
2018-02-17T13:27:28.184Z,186.98
2018-02-17T13:29:56.110Z,174.27
2018-02-17T13:32:24.025Z,196.35
2018-02-17T13:34:52.016Z,198.05
2018-02-17T13:37:19.987Z,185.18
2018-02-17T13:39:48.750Z,183.77
2018-02-17T13:42:16.763Z,196.57
2018-02-17T13:44:44.682Z,188.62
2018-02-17T13:47:12.637Z,202.05
2018-02-17T13:49:40.607Z,208.83
2018-02-17T13:52:08.615Z,185.07
2018-02-17T13:54:37.348Z,172.10
2018-02-17T13:57:05.285Z,173.07
2018-02-17T13:59:33.209Z,187.68
2018-02-17T14:02:01.229Z,181.83
2018-02-17T14:04:29.223Z,180.10
2018-02-17T14:06:57.208Z,180.47
2018-02-17T14:09:25.344Z,168.03
2018-02-17T14:11:53.291Z,182.60
2018-02-17T14:14:21.351Z,167.32
2018-02-17T14:16:50.132Z,154.00
2018-02-17T14:19:18.895Z,147.07
2018-02-17T14:21:46.877Z,151.65
2018-02-17T14:24:14.892Z,145.62
2018-02-17T14:26:42.883Z,166.47
2018-02-17T14:29:10.870Z,178.65
2018-02-17T14:31:38.879Z,169.63
2018-02-17T14:34:07.558Z,173.37
2018-02-17T14:36:36.310Z,166.30
2018-02-17T14:39:04.443Z,169.80
2018-02-17T14:41:32.366Z,168.93
2018-02-17T14:44:00.294Z,158.77
2018-02-17T14:46:28.180Z,129.53
2018-02-17T14:48:56.267Z,142.85
2018-02-17T14:51:24.249Z,131.95
2018-02-17T14:53:52.171Z,135.83
2018-02-17T14:56:20.118Z,130.30
2018-02-17T14:58:48.088Z,146.37
2018-02-17T15:01:15.995Z,155.60
2018-02-17T15:03:43.973Z,154.98
2018-02-17T15:06:11.902Z,153.80
2018-02-17T15:08:39.835Z,143.37
2018-02-17T15:11:08.583Z,140.20
2018-02-17T15:13:36.555Z,146.27
2018-02-17T15:16:04.487Z,148.27
2018-02-17T15:18:34.449Z,153.18
2018-02-17T15:21:02.409Z,152.27
2018-02-17T15:23:30.364Z,143.43
2018-02-17T15:25:58.239Z,141.68
2018-02-17T15:28:26.214Z,139.07
2018-02-17T15:30:54.889Z,159.23
2018-02-17T15:33:22.853Z,141.80
2018-02-17T15:35:50.748Z,150.87
2018-02-17T15:38:18.726Z,155.18
2018-02-17T15:40:46.712Z,154.73
2018-02-17T15:43:15.413Z,168.27
2018-02-17T15:45:43.416Z,157.48
2018-02-17T15:48:11.342Z,150.93
2018-02-17T15:50:39.306Z,156.80
2018-02-17T15:53:08.071Z,183.18
2018-02-17T15:55:36.067Z,158.37
2018-02-17T15:59:28.596Z,158.12
2018-02-17T16:01:56.864Z,172.80
2018-02-17T16:04:25.055Z,168.70
2018-02-17T16:06:53.938Z,175.40
2018-02-17T16:09:22.928Z,158.00
2018-02-17T16:11:51.195Z,154.60
2018-02-17T16:14:19.857Z,154.25
2018-02-17T16:16:48.051Z,144.52
2018-02-17T16:19:16.232Z,144.62
2018-02-17T16:21:46.474Z,135.10
2018-02-17T16:24:16.437Z,137.30
2018-02-17T16:26:46.977Z,133.43
2018-02-17T16:29:15.888Z,129.87
2018-02-17T16:31:44.068Z,126.78
2018-02-17T16:34:12.235Z,148.45
2018-02-17T16:36:40.313Z,136.62
2018-02-17T16:39:08.375Z,122.35
2018-02-17T16:41:37.071Z,124.75
2018-02-17T16:44:05.345Z,123.32
2018-02-17T16:46:33.508Z,115.62
2018-02-17T16:49:01.978Z,125.43
2018-02-17T16:51:30.165Z,119.25
2018-02-17T16:53:58.436Z,136.68
2018-02-17T16:56:26.623Z,117.50
2018-02-17T16:58:54.899Z,120.10
2018-02-17T17:01:23.061Z,104.10
2018-02-17T17:03:51.749Z,108.28
2018-02-17T17:06:19.933Z,108.55
2018-02-17T17:08:48.105Z,116.28
2018-02-17T17:11:18.793Z,116.28
2018-02-17T17:13:46.898Z,110.75
2018-02-17T17:16:15.076Z,106.70
2018-02-17T17:18:43.005Z,107.65
2018-02-17T17:21:11.221Z,119.90
2018-02-17T17:23:39.391Z,97.25
2018-02-17T17:26:07.562Z,99.95
2018-02-17T17:28:35.747Z,104.38
2018-02-17T17:31:03.908Z,102.57
2018-02-17T17:33:32.196Z,96.70
2018-02-17T17:36:00.357Z,87.72
2018-02-17T17:38:28.433Z,87.12
2018-02-17T17:40:56.716Z,93.75
2018-02-17T17:43:24.883Z,96.40
2018-02-17T17:45:53.052Z,97.82
2018-02-17T17:48:21.239Z,102.53
2018-02-17T17:50:49.513Z,93.15
2018-02-17T17:53:17.678Z,102.45
2018-02-17T17:55:45.826Z,99.50
2018-02-17T17:58:13.922Z,101.12
2018-02-17T18:00:42.147Z,94.68
2018-02-17T18:03:10.267Z,97.43
2018-02-17T18:05:38.445Z,94.10
2018-02-17T18:08:06.511Z,93.05
2018-02-17T18:10:34.800Z,82.62
2018-02-17T18:13:02.919Z,105.78
2018-02-17T18:15:31.043Z,93.20
2018-02-17T18:17:59.934Z,89.13
2018-02-17T18:20:27.993Z,86.87
2018-02-17T18:22:56.068Z,83.57
2018-02-17T18:25:24.240Z,93.47
2018-02-17T18:27:52.206Z,85.80
2018-02-17T18:30:20.394Z,79.03
2018-02-17T18:32:48.668Z,89.70
2018-02-17T18:35:17.243Z,77.12
2018-02-17T18:37:45.418Z,86.85
2018-02-17T18:40:13.598Z,86.12
2018-02-17T18:42:41.764Z,89.75
2018-02-17T18:45:11.849Z,83.60
2018-02-17T18:47:39.851Z,82.28
2018-02-17T18:50:08.135Z,89.45
2018-02-17T18:52:37.833Z,90.93
2018-02-17T18:55:05.915Z,86.32
2018-02-17T18:57:34.083Z,88.22
2018-02-17T19:00:02.367Z,85.70
2018-02-17T19:02:30.539Z,79.43
2018-02-17T19:04:58.705Z,84.80
2018-02-17T19:07:26.886Z,82.53
2018-02-17T19:09:55.047Z,88.75
2018-02-17T19:12:23.118Z,79.47
2018-02-17T19:14:51.190Z,76.75
2018-02-17T19:17:19.261Z,87.40
2018-02-17T19:19:47.441Z,75.70
2018-02-17T19:22:16.223Z,80.85
2018-02-17T19:24:44.297Z,76.93
2018-02-17T19:27:12.472Z,85.40
2018-02-17T19:29:40.644Z,76.47
2018-02-17T19:32:10.362Z,86.68
2018-02-17T19:34:38.471Z,83.65
2018-02-17T19:37:06.710Z,73.15
2018-02-17T19:39:34.884Z,77.47
2018-02-17T19:42:04.592Z,80.90
2018-02-17T19:44:32.760Z,83.18
2018-02-17T19:47:00.812Z,73.32
2018-02-17T19:49:28.998Z,81.97
2018-02-17T19:51:57.074Z,71.82
2018-02-17T19:54:25.256Z,86.47
2018-02-17T19:56:53.316Z,71.87
2018-02-17T19:59:21.500Z,86.43
2018-02-17T20:01:49.672Z,74.90
2018-02-17T20:04:17.735Z,82.88
2018-02-17T20:06:45.909Z,78.57
2018-02-17T20:09:13.875Z,80.95
2018-02-17T20:11:41.949Z,81.68
2018-02-17T20:14:10.087Z,80.62
2018-02-17T20:16:38.305Z,79.97
2018-02-17T20:19:06.364Z,78.82
2018-02-17T20:21:34.549Z,82.75
2018-02-17T20:24:02.716Z,79.30
2018-02-17T20:26:31.000Z,83.15
2018-02-17T20:28:59.161Z,76.55
2018-02-17T20:31:27.235Z,82.68
2018-02-17T20:33:56.020Z,84.50
2018-02-17T20:36:24.194Z,95.85
2018-02-17T20:38:52.265Z,82.47
2018-02-17T20:41:20.340Z,93.12
2018-02-17T20:43:48.521Z,95.95
2018-02-17T20:46:16.695Z,89.35
2018-02-17T20:48:44.860Z,75.10
2018-02-17T20:51:13.042Z,92.25
2018-02-17T20:53:41.101Z,89.87
2018-02-17T20:56:09.077Z,85.20
2018-02-17T20:58:37.144Z,83.30
2018-02-17T21:01:05.840Z,86.60
2018-02-17T21:03:34.719Z,86.03
2018-02-17T21:06:03.005Z,83.95
2018-02-17T21:08:31.171Z,88.70
2018-02-17T21:11:00.059Z,85.55
2018-02-17T21:13:28.235Z,99.95
2018-02-17T21:15:56.304Z,89.07
2018-02-17T21:18:24.378Z,93.55
2018-02-17T21:20:52.545Z,97.03
2018-02-17T21:23:20.734Z,84.20
2018-02-17T21:25:50.411Z,95.00
2018-02-17T21:28:18.512Z,102.40
2018-02-17T21:30:46.788Z,94.53
2018-02-17T21:33:15.576Z,96.18
2018-02-17T21:35:43.748Z,114.45
2018-02-17T21:38:11.921Z,107.25
2018-02-17T21:40:40.597Z,105.90
2018-02-17T21:43:08.781Z,111.53
2018-02-17T21:45:37.058Z,124.60
2018-02-17T21:48:05.333Z,119.00
2018-02-17T21:50:33.393Z,121.55
2018-02-17T21:53:01.571Z,132.40
2018-02-17T21:55:29.846Z,131.60
2018-02-17T21:57:57.812Z,139.65
2018-02-17T22:00:27.323Z,124.85
2018-02-17T22:02:55.491Z,132.05
2018-02-17T22:05:23.665Z,142.85
2018-02-17T22:07:51.630Z,140.98
2018-02-17T22:10:19.600Z,138.73
2018-02-17T22:12:54.431Z,134.25
2018-02-17T22:15:23.218Z,136.27
2018-02-17T22:17:52.213Z,147.77
2018-02-17T22:20:20.396Z,155.70
2018-02-17T22:22:49.072Z,135.77
2018-02-17T22:25:18.062Z,139.10
2018-02-17T22:27:46.133Z,134.48
2018-02-17T22:30:14.312Z,136.77
2018-02-17T22:32:42.485Z,140.70
2018-02-17T22:35:11.280Z,136.82
2018-02-17T22:37:39.454Z,145.12
2018-02-17T22:40:07.514Z,138.05
2018-02-17T22:42:35.695Z,133.12
2018-02-17T22:45:03.757Z,119.82
2018-02-17T22:47:31.842Z,120.50
2018-02-17T22:50:00.005Z,131.90
2018-02-17T22:52:28.084Z,113.68
2018-02-17T22:54:56.147Z,113.62
2018-02-17T22:57:24.174Z,111.45
2018-02-17T22:59:52.290Z,113.80
2018-02-17T23:02:20.256Z,116.60
2018-02-17T23:04:48.338Z,113.95
2018-02-17T23:07:16.399Z,109.22
2018-02-17T23:09:44.471Z,112.40
2018-02-17T23:12:12.649Z,117.53
2018-02-17T23:14:43.200Z,109.25
2018-02-17T23:17:12.815Z,118.10
2018-02-17T23:19:41.705Z,116.55
2018-02-17T23:22:09.957Z,126.93
2018-02-17T23:24:38.231Z,116.82
2018-02-17T23:27:07.117Z,128.07
2018-02-17T23:29:36.084Z,124.30
2018-02-17T23:32:04.181Z,131.87
2018-02-17T23:34:32.362Z,111.10
2018-02-17T23:37:00.256Z,118.25
2018-02-17T23:39:28.947Z,121.13
2018-02-17T23:41:59.153Z,121.40
2018-02-17T23:44:27.914Z,131.80
2018-02-17T23:46:55.993Z,133.20
2018-02-17T23:49:24.166Z,118.97
2018-02-17T23:51:53.785Z,127.22
2018-02-17T23:54:22.664Z,113.45
2018-02-17T23:56:50.828Z,120.87
2018-02-17T23:59:19.010Z,113.78
